sensor_id;sensor_type;location;lat;lon;timestamp;temperature;humidity
14031;DHT22;7090;49.436;8.490;2023-07-13T00:00:29;20.10;1.00
14031;DHT22;7090;49.436;8.490;2023-07-13T00:02:55;20.00;1.00
14031;DHT22;7090;49.436;8.490;2023-07-13T00:05:22;20.00;1.00
14031;DHT22;7090;49.436;8.490;2023-07-13T00:07:49;20.10;1.00
14031;DHT22;7090;49.436;8.490;2023-07-13T00:10:16;20.00;1.00
14031;DHT22;7090;49.436;8.490;2023-07-13T00:12:42;19.90;1.00
14031;DHT22;7090;49.436;8.490;2023-07-13T00:15:23;19.90;1.00
14031;DHT22;7090;49.436;8.490;2023-07-13T00:17:53;19.90;1.00
14031;DHT22;7090;49.436;8.490;2023-07-13T00:20:20;19.90;1.00
14031;DHT22;7090;49.436;8.490;2023-07-13T00:22:48;19.70;1.00
14031;DHT22;7090;49.436;8.490;2023-07-13T00:25:14;19.50;1.00
14031;DHT22;7090;49.436;8.490;2023-07-13T00:27:41;19.50;1.00
14031;DHT22;7090;49.436;8.490;2023-07-13T00:30:07;19.40;1.00
14031;DHT22;7090;49.436;8.490;2023-07-13T00:32:34;19.30;1.00
14031;DHT22;7090;49.436;8.490;2023-07-13T00:35:00;19.20;1.00
14031;DHT22;7090;49.436;8.490;2023-07-13T00:37:26;19.10;58.90
14031;DHT22;7090;49.436;8.490;2023-07-13T00:39:52;19.10;1.00
14031;DHT22;7090;49.436;8.490;2023-07-13T00:42:17;19.20;1.00
14031;DHT22;7090;49.436;8.490;2023-07-13T00:45:02;19.10;1.00
14031;DHT22;7090;49.436;8.490;2023-07-13T00:47:27;19.00;1.00
14031;DHT22;7090;49.436;8.490;2023-07-13T00:49:53;19.00;1.00
14031;DHT22;7090;49.436;8.490;2023-07-13T00:52:18;18.80;74.60
14031;DHT22;7090;49.436;8.490;2023-07-13T00:54:46;18.80;99.90
14031;DHT22;7090;49.436;8.490;2023-07-13T00:57:15;18.70;1.00
14031;DHT22;7090;49.436;8.490;2023-07-13T00:59:45;18.70;1.00
14031;DHT22;7090;49.436;8.490;2023-07-13T01:02:12;18.60;1.00
14031;DHT22;7090;49.436;8.490;2023-07-13T01:04:37;18.50;1.00
14031;DHT22;7090;49.436;8.490;2023-07-13T01:07:05;18.40;99.90
14031;DHT22;7090;49.436;8.490;2023-07-13T01:09:31;18.50;99.90
14031;DHT22;7090;49.436;8.490;2023-07-13T01:11:57;18.50;99.90
14031;DHT22;7090;49.436;8.490;2023-07-13T01:14:23;18.40;99.90
14031;DHT22;7090;49.436;8.490;2023-07-13T01:16:50;18.50;90.50
14031;DHT22;7090;49.436;8.490;2023-07-13T01:22:02;18.50;99.90
14031;DHT22;7090;49.436;8.490;2023-07-13T01:24:28;18.40;99.90
14031;DHT22;7090;49.436;8.490;2023-07-13T01:26:54;18.30;99.90
14031;DHT22;7090;49.436;8.490;2023-07-13T01:29:20;18.30;1.00
14031;DHT22;7090;49.436;8.490;2023-07-13T01:31:46;18.30;1.00
14031;DHT22;7090;49.436;8.490;2023-07-13T01:34:12;18.40;99.90
14031;DHT22;7090;49.436;8.490;2023-07-13T01:36:38;18.30;99.90
14031;DHT22;7090;49.436;8.490;2023-07-13T01:39:04;18.20;99.90
14031;DHT22;7090;49.436;8.490;2023-07-13T01:41:29;18.20;99.90
14031;DHT22;7090;49.436;8.490;2023-07-13T01:43:55;18.30;99.90
14031;DHT22;7090;49.436;8.490;2023-07-13T01:46:20;18.30;99.90
14031;DHT22;7090;49.436;8.490;2023-07-13T01:48:46;18.40;1.00
14031;DHT22;7090;49.436;8.490;2023-07-13T01:51:12;18.50;1.00
14031;DHT22;7090;49.436;8.490;2023-07-13T01:53:38;18.30;1.00
14031;DHT22;7090;49.436;8.490;2023-07-13T01:56:04;18.20;1.00
14031;DHT22;7090;49.436;8.490;2023-07-13T01:58:30;18.00;99.90
14031;DHT22;7090;49.436;8.490;2023-07-13T02:00:55;17.90;1.00
14031;DHT22;7090;49.436;8.490;2023-07-13T02:03:21;17.80;99.90
14031;DHT22;7090;49.436;8.490;2023-07-13T02:05:46;17.70;1.00
14031;DHT22;7090;49.436;8.490;2023-07-13T02:08:12;17.70;1.00
14031;DHT22;7090;49.436;8.490;2023-07-13T02:10:37;17.70;30.40
14031;DHT22;7090;49.436;8.490;2023-07-13T02:13:05;17.70;99.90
14031;DHT22;7090;49.436;8.490;2023-07-13T02:15:31;17.60;1.00
14031;DHT22;7090;49.436;8.490;2023-07-13T02:17:57;17.50;4.90
14031;DHT22;7090;49.436;8.490;2023-07-13T02:20:24;17.60;1.00
14031;DHT22;7090;49.436;8.490;2023-07-13T02:22:50;17.80;1.00
14031;DHT22;7090;49.436;8.490;2023-07-13T02:25:15;17.80;1.00
14031;DHT22;7090;49.436;8.490;2023-07-13T02:27:41;17.60;1.00
14031;DHT22;7090;49.436;8.490;2023-07-13T02:30:08;17.50;1.00
14031;DHT22;7090;49.436;8.490;2023-07-13T02:32:33;17.40;99.90
14031;DHT22;7090;49.436;8.490;2023-07-13T02:35:00;17.30;1.00
14031;DHT22;7090;49.436;8.490;2023-07-13T02:37:26;17.00;1.00
14031;DHT22;7090;49.436;8.490;2023-07-13T02:39:51;16.90;37.40
14031;DHT22;7090;49.436;8.490;2023-07-13T02:42:17;16.90;99.90
14031;DHT22;7090;49.436;8.490;2023-07-13T02:44:43;16.80;1.00
14031;DHT22;7090;49.436;8.490;2023-07-13T02:47:08;16.70;1.00
14031;DHT22;7090;49.436;8.490;2023-07-13T02:49:34;16.70;1.00
14031;DHT22;7090;49.436;8.490;2023-07-13T02:51:59;16.70;1.00
14031;DHT22;7090;49.436;8.490;2023-07-13T02:54:25;16.60;1.00
14031;DHT22;7090;49.436;8.490;2023-07-13T02:56:50;16.60;1.00
14031;DHT22;7090;49.436;8.490;2023-07-13T02:59:16;16.70;1.00
14031;DHT22;7090;49.436;8.490;2023-07-13T03:01:42;16.70;1.00
14031;DHT22;7090;49.436;8.490;2023-07-13T03:04:07;16.60;1.00
14031;DHT22;7090;49.436;8.490;2023-07-13T03:06:33;16.60;1.00
14031;DHT22;7090;49.436;8.490;2023-07-13T03:08:59;16.60;1.00
14031;DHT22;7090;49.436;8.490;2023-07-13T03:11:25;16.60;1.00
14031;DHT22;7090;49.436;8.490;2023-07-13T03:13:51;16.50;1.00
14031;DHT22;7090;49.436;8.490;2023-07-13T03:16:17;16.50;1.00
14031;DHT22;7090;49.436;8.490;2023-07-13T03:18:43;16.50;1.00
14031;DHT22;7090;49.436;8.490;2023-07-13T03:21:09;16.70;99.90
14031;DHT22;7090;49.436;8.490;2023-07-13T03:23:35;16.70;99.90
14031;DHT22;7090;49.436;8.490;2023-07-13T03:26:09;16.70;99.90
14031;DHT22;7090;49.436;8.490;2023-07-13T03:28:36;16.70;99.90
14031;DHT22;7090;49.436;8.490;2023-07-13T03:31:12;16.60;99.90
14031;DHT22;7090;49.436;8.490;2023-07-13T03:33:38;16.60;99.90
14031;DHT22;7090;49.436;8.490;2023-07-13T03:36:05;16.50;99.90
14031;DHT22;7090;49.436;8.490;2023-07-13T03:38:31;16.60;99.90
14031;DHT22;7090;49.436;8.490;2023-07-13T03:40:57;16.60;99.90
14031;DHT22;7090;49.436;8.490;2023-07-13T03:43:22;16.60;99.90
14031;DHT22;7090;49.436;8.490;2023-07-13T03:45:48;16.60;1.00
14031;DHT22;7090;49.436;8.490;2023-07-13T03:48:14;16.70;1.00
14031;DHT22;7090;49.436;8.490;2023-07-13T03:50:39;17.00;1.00
14031;DHT22;7090;49.436;8.490;2023-07-13T03:53:05;17.10;99.90
14031;DHT22;7090;49.436;8.490;2023-07-13T03:55:31;17.20;99.90
14031;DHT22;7090;49.436;8.490;2023-07-13T04:00:54;17.00;99.90
14031;DHT22;7090;49.436;8.490;2023-07-13T04:03:20;16.90;99.90
14031;DHT22;7090;49.436;8.490;2023-07-13T04:05:45;16.80;99.90
14031;DHT22;7090;49.436;8.490;2023-07-13T04:08:11;16.80;99.90
14031;DHT22;7090;49.436;8.490;2023-07-13T04:10:37;17.00;1.00
14031;DHT22;7090;49.436;8.490;2023-07-13T04:13:04;17.40;99.90
14031;DHT22;7090;49.436;8.490;2023-07-13T04:15:31;17.70;99.90
14031;DHT22;7090;49.436;8.490;2023-07-13T04:17:57;17.80;99.90
14031;DHT22;7090;49.436;8.490;2023-07-13T04:20:24;18.00;99.90
14031;DHT22;7090;49.436;8.490;2023-07-13T04:22:50;18.10;99.90
14031;DHT22;7090;49.436;8.490;2023-07-13T04:25:16;18.10;99.90
14031;DHT22;7090;49.436;8.490;2023-07-13T04:27:41;18.10;99.90
14031;DHT22;7090;49.436;8.490;2023-07-13T04:30:07;18.40;99.90
14031;DHT22;7090;49.436;8.490;2023-07-13T04:32:33;18.70;94.20
14031;DHT22;7090;49.436;8.490;2023-07-13T04:34:59;18.90;1.00
14031;DHT22;7090;49.436;8.490;2023-07-13T04:37:25;18.90;1.00
14031;DHT22;7090;49.436;8.490;2023-07-13T04:39:51;19.00;1.00
14031;DHT22;7090;49.436;8.490;2023-07-13T04:42:17;19.30;99.90
14031;DHT22;7090;49.436;8.490;2023-07-13T04:44:48;19.90;99.90
14031;DHT22;7090;49.436;8.490;2023-07-13T04:47:14;20.10;99.90
14031;DHT22;7090;49.436;8.490;2023-07-13T04:49:39;20.40;99.90
14031;DHT22;7090;49.436;8.490;2023-07-13T04:52:06;20.80;99.90
14031;DHT22;7090;49.436;8.490;2023-07-13T04:54:33;21.10;1.00
14031;DHT22;7090;49.436;8.490;2023-07-13T04:56:58;20.60;99.90
14031;DHT22;7090;49.436;8.490;2023-07-13T04:59:24;20.20;99.90
14031;DHT22;7090;49.436;8.490;2023-07-13T05:01:50;19.80;99.90
14031;DHT22;7090;49.436;8.490;2023-07-13T05:04:16;19.40;99.90
14031;DHT22;7090;49.436;8.490;2023-07-13T05:06:42;19.30;99.90
14031;DHT22;7090;49.436;8.490;2023-07-13T05:09:07;19.30;99.90
14031;DHT22;7090;49.436;8.490;2023-07-13T05:11:33;19.60;1.00
14031;DHT22;7090;49.436;8.490;2023-07-13T05:13:58;19.70;1.00
14031;DHT22;7090;49.436;8.490;2023-07-13T05:16:26;19.60;1.00
14031;DHT22;7090;49.436;8.490;2023-07-13T05:18:52;19.70;1.00
14031;DHT22;7090;49.436;8.490;2023-07-13T05:21:18;19.60;1.00
14031;DHT22;7090;49.436;8.490;2023-07-13T05:23:43;19.50;1.00
14031;DHT22;7090;49.436;8.490;2023-07-13T05:26:09;19.50;1.00
14031;DHT22;7090;49.436;8.490;2023-07-13T05:28:35;19.30;99.90
14031;DHT22;7090;49.436;8.490;2023-07-13T05:31:01;19.40;99.90
14031;DHT22;7090;49.436;8.490;2023-07-13T05:33:27;19.40;99.90
14031;DHT22;7090;49.436;8.490;2023-07-13T05:35:53;19.50;99.90
14031;DHT22;7090;49.436;8.490;2023-07-13T05:38:18;19.60;99.90
14031;DHT22;7090;49.436;8.490;2023-07-13T05:40:45;19.90;99.90
14031;DHT22;7090;49.436;8.490;2023-07-13T05:43:11;20.20;99.90
14031;DHT22;7090;49.436;8.490;2023-07-13T05:45:37;20.40;99.90
14031;DHT22;7090;49.436;8.490;2023-07-13T05:48:02;20.40;99.90
14031;DHT22;7090;49.436;8.490;2023-07-13T05:50:28;20.30;1.00
14031;DHT22;7090;49.436;8.490;2023-07-13T05:52:54;20.40;99.90
14031;DHT22;7090;49.436;8.490;2023-07-13T05:55:20;20.80;99.90
14031;DHT22;7090;49.436;8.490;2023-07-13T05:57:46;21.30;1.00
14031;DHT22;7090;49.436;8.490;2023-07-13T06:00:12;21.90;1.00
14031;DHT22;7090;49.436;8.490;2023-07-13T06:02:38;22.00;1.00
14031;DHT22;7090;49.436;8.490;2023-07-13T06:05:04;22.00;1.00
14031;DHT22;7090;49.436;8.490;2023-07-13T06:07:30;21.50;1.00
14031;DHT22;7090;49.436;8.490;2023-07-13T06:09:55;21.20;1.00
14031;DHT22;7090;49.436;8.490;2023-07-13T06:12:21;21.10;1.00
14031;DHT22;7090;49.436;8.490;2023-07-13T06:14:47;21.70;1.00
14031;DHT22;7090;49.436;8.490;2023-07-13T06:17:12;22.60;1.00
14031;DHT22;7090;49.436;8.490;2023-07-13T06:19:38;23.30;1.00
14031;DHT22;7090;49.436;8.490;2023-07-13T06:22:04;23.90;1.00
14031;DHT22;7090;49.436;8.490;2023-07-13T06:24:30;24.30;1.00
14031;DHT22;7090;49.436;8.490;2023-07-13T06:26:55;24.80;1.00
14031;DHT22;7090;49.436;8.490;2023-07-13T06:29:21;24.90;1.00
14031;DHT22;7090;49.436;8.490;2023-07-13T06:31:46;25.50;1.00
14031;DHT22;7090;49.436;8.490;2023-07-13T06:34:12;26.10;1.00
14031;DHT22;7090;49.436;8.490;2023-07-13T06:36:37;25.50;1.00
14031;DHT22;7090;49.436;8.490;2023-07-13T06:39:04;25.10;1.00
14031;DHT22;7090;49.436;8.490;2023-07-13T06:41:29;25.40;1.00
14031;DHT22;7090;49.436;8.490;2023-07-13T06:43:56;26.10;1.00
14031;DHT22;7090;49.436;8.490;2023-07-13T06:46:22;26.80;1.00
14031;DHT22;7090;49.436;8.490;2023-07-13T06:48:48;26.90;1.00
14031;DHT22;7090;49.436;8.490;2023-07-13T06:51:14;27.40;1.00
14031;DHT22;7090;49.436;8.490;2023-07-13T06:53:40;27.90;1.00
14031;DHT22;7090;49.436;8.490;2023-07-13T06:56:05;28.10;1.00
14031;DHT22;7090;49.436;8.490;2023-07-13T06:58:33;28.50;1.00
14031;DHT22;7090;49.436;8.490;2023-07-13T07:00:58;28.40;1.00
14031;DHT22;7090;49.436;8.490;2023-07-13T07:03:24;28.20;1.00
14031;DHT22;7090;49.436;8.490;2023-07-13T07:05:50;26.70;1.00
14031;DHT22;7090;49.436;8.490;2023-07-13T07:08:15;26.50;1.00
14031;DHT22;7090;49.436;8.490;2023-07-13T07:10:41;26.40;1.00
14031;DHT22;7090;49.436;8.490;2023-07-13T07:13:07;26.60;1.00
14031;DHT22;7090;49.436;8.490;2023-07-13T07:15:34;26.20;1.00
14031;DHT22;7090;49.436;8.490;2023-07-13T07:18:00;25.90;1.00
14031;DHT22;7090;49.436;8.490;2023-07-13T07:20:26;26.10;1.00
14031;DHT22;7090;49.436;8.490;2023-07-13T07:22:52;26.80;1.00
14031;DHT22;7090;49.436;8.490;2023-07-13T07:25:18;27.70;1.00
14031;DHT22;7090;49.436;8.490;2023-07-13T07:27:44;28.20;1.00
14031;DHT22;7090;49.436;8.490;2023-07-13T07:30:10;28.30;1.00
14031;DHT22;7090;49.436;8.490;2023-07-13T07:32:35;27.90;1.00
14031;DHT22;7090;49.436;8.490;2023-07-13T07:35:01;27.70;1.00
14031;DHT22;7090;49.436;8.490;2023-07-13T07:37:26;28.10;99.90
14031;DHT22;7090;49.436;8.490;2023-07-13T07:39:52;28.30;99.90
14031;DHT22;7090;49.436;8.490;2023-07-13T07:42:18;28.20;99.90
14031;DHT22;7090;49.436;8.490;2023-07-13T07:44:43;28.10;99.90
14031;DHT22;7090;49.436;8.490;2023-07-13T07:47:09;28.40;99.90
14031;DHT22;7090;49.436;8.490;2023-07-13T07:49:35;28.60;99.90
14031;DHT22;7090;49.436;8.490;2023-07-13T07:52:01;27.90;99.90
14031;DHT22;7090;49.436;8.490;2023-07-13T07:54:27;28.40;1.00
14031;DHT22;7090;49.436;8.490;2023-07-13T07:56:52;28.60;1.00
14031;DHT22;7090;49.436;8.490;2023-07-13T07:59:18;28.80;1.00
14031;DHT22;7090;49.436;8.490;2023-07-13T08:01:44;29.00;99.90
14031;DHT22;7090;49.436;8.490;2023-07-13T08:04:12;29.30;1.00
14031;DHT22;7090;49.436;8.490;2023-07-13T08:06:38;29.30;1.00
14031;DHT22;7090;49.436;8.490;2023-07-13T08:09:03;29.20;99.90
14031;DHT22;7090;49.436;8.490;2023-07-13T08:11:30;29.50;1.00
14031;DHT22;7090;49.436;8.490;2023-07-13T08:13:55;29.70;1.00
14031;DHT22;7090;49.436;8.490;2023-07-13T08:16:22;29.70;1.00
14031;DHT22;7090;49.436;8.490;2023-07-13T08:18:47;29.50;1.00
14031;DHT22;7090;49.436;8.490;2023-07-13T08:21:13;29.00;1.00
14031;DHT22;7090;49.436;8.490;2023-07-13T08:23:39;27.50;1.00
14031;DHT22;7090;49.436;8.490;2023-07-13T08:26:05;26.00;1.00
14031;DHT22;7090;49.436;8.490;2023-07-13T08:28:31;26.90;1.00
14031;DHT22;7090;49.436;8.490;2023-07-13T08:31:05;27.10;1.00
14031;DHT22;7090;49.436;8.490;2023-07-13T08:33:31;27.90;1.00
14031;DHT22;7090;49.436;8.490;2023-07-13T08:35:56;28.60;1.00
14031;DHT22;7090;49.436;8.490;2023-07-13T08:38:22;28.10;1.00
14031;DHT22;7090;49.436;8.490;2023-07-13T08:40:56;26.40;1.00
14031;DHT22;7090;49.436;8.490;2023-07-13T08:43:35;26.00;1.00
14031;DHT22;7090;49.436;8.490;2023-07-13T08:49:01;27.10;1.00
14031;DHT22;7090;49.436;8.490;2023-07-13T08:51:43;26.70;1.00
14031;DHT22;7090;49.436;8.490;2023-07-13T08:56:53;26.00;1.00
14031;DHT22;7090;49.436;8.490;2023-07-13T08:59:23;26.20;1.00
14031;DHT22;7090;49.436;8.490;2023-07-13T09:04:21;27.60;99.90
14031;DHT22;7090;49.436;8.490;2023-07-13T09:09:47;28.50;99.90
14031;DHT22;7090;49.436;8.490;2023-07-13T09:12:19;28.50;99.90
14031;DHT22;7090;49.436;8.490;2023-07-13T09:14:50;27.10;99.90
14031;DHT22;7090;49.436;8.490;2023-07-13T09:17:30;26.70;99.90
14031;DHT22;7090;49.436;8.490;2023-07-13T09:20:25;25.60;25.60
14031;DHT22;7090;49.436;8.490;2023-07-13T09:22:52;24.70;1.00
14031;DHT22;7090;49.436;8.490;2023-07-13T09:25:32;24.90;1.00
14031;DHT22;7090;49.436;8.490;2023-07-13T09:31:11;25.10;1.00
14031;DHT22;7090;49.436;8.490;2023-07-13T09:33:39;25.00;1.00
14031;DHT22;7090;49.436;8.490;2023-07-13T09:36:33;25.00;1.00
14031;DHT22;7090;49.436;8.490;2023-07-13T09:39:24;24.90;1.00
14031;DHT22;7090;49.436;8.490;2023-07-13T09:41:53;25.00;1.00
14031;DHT22;7090;49.436;8.490;2023-07-13T09:44:28;26.30;1.00
14031;DHT22;7090;49.436;8.490;2023-07-13T09:46:56;27.40;1.00
14031;DHT22;7090;49.436;8.490;2023-07-13T09:49:27;28.50;1.00
14031;DHT22;7090;49.436;8.490;2023-07-13T09:52:04;29.10;1.00
14031;DHT22;7090;49.436;8.490;2023-07-13T09:54:33;29.00;1.00
14031;DHT22;7090;49.436;8.490;2023-07-13T09:57:00;28.30;99.90
14031;DHT22;7090;49.436;8.490;2023-07-13T09:59:32;27.10;1.00
14031;DHT22;7090;49.436;8.490;2023-07-13T10:01:58;26.70;1.00
14031;DHT22;7090;49.436;8.490;2023-07-13T10:04:31;26.30;1.00
14031;DHT22;7090;49.436;8.490;2023-07-13T10:07:08;26.50;1.00
14031;DHT22;7090;49.436;8.490;2023-07-13T10:09:34;26.30;1.00
14031;DHT22;7090;49.436;8.490;2023-07-13T10:12:00;26.80;1.00
14031;DHT22;7090;49.436;8.490;2023-07-13T10:14:26;26.00;1.00
14031;DHT22;7090;49.436;8.490;2023-07-13T10:16:58;26.10;1.00
14031;DHT22;7090;49.436;8.490;2023-07-13T10:19:26;25.60;1.00
14031;DHT22;7090;49.436;8.490;2023-07-13T10:21:54;25.30;99.90
14031;DHT22;7090;49.436;8.490;2023-07-13T10:24:22;25.70;1.00
14031;DHT22;7090;49.436;8.490;2023-07-13T10:29:22;26.70;99.90
14031;DHT22;7090;49.436;8.490;2023-07-13T10:31:49;27.20;1.00
14031;DHT22;7090;49.436;8.490;2023-07-13T10:34:15;26.80;1.00
14031;DHT22;7090;49.436;8.490;2023-07-13T10:36:48;27.20;1.00
14031;DHT22;7090;49.436;8.490;2023-07-13T10:39:26;27.10;1.00
14031;DHT22;7090;49.436;8.490;2023-07-13T10:41:55;27.10;1.00
14031;DHT22;7090;49.436;8.490;2023-07-13T10:44:26;27.10;1.00
14031;DHT22;7090;49.436;8.490;2023-07-13T10:47:02;26.90;62.00
14031;DHT22;7090;49.436;8.490;2023-07-13T10:49:31;26.40;6.60
14031;DHT22;7090;49.436;8.490;2023-07-13T10:51:57;26.10;1.00
14031;DHT22;7090;49.436;8.490;2023-07-13T10:54:33;26.20;1.00
14031;DHT22;7090;49.436;8.490;2023-07-13T10:57:19;26.10;1.00
14031;DHT22;7090;49.436;8.490;2023-07-13T11:02:28;27.10;1.00
14031;DHT22;7090;49.436;8.490;2023-07-13T11:04:55;27.80;1.00
14031;DHT22;7090;49.436;8.490;2023-07-13T11:07:28;28.40;10.20
14031;DHT22;7090;49.436;8.490;2023-07-13T11:09:59;28.40;16.50
14031;DHT22;7090;49.436;8.490;2023-07-13T11:17:47;28.00;1.00
14031;DHT22;7090;49.436;8.490;2023-07-13T11:23:07;26.80;99.90
14031;DHT22;7090;49.436;8.490;2023-07-13T11:25:34;27.70;1.00
14031;DHT22;7090;49.436;8.490;2023-07-13T11:28:17;27.50;1.00
14031;DHT22;7090;49.436;8.490;2023-07-13T11:30:49;28.20;1.00
14031;DHT22;7090;49.436;8.490;2023-07-13T11:33:25;28.30;99.90
14031;DHT22;7090;49.436;8.490;2023-07-13T11:36:29;28.70;99.90
14031;DHT22;7090;49.436;8.490;2023-07-13T11:39:04;29.00;99.90
14031;DHT22;7090;49.436;8.490;2023-07-13T11:41:35;29.80;99.90
14031;DHT22;7090;49.436;8.490;2023-07-13T11:44:15;30.50;1.00
14031;DHT22;7090;49.436;8.490;2023-07-13T11:46:49;30.80;1.00
14031;DHT22;7090;49.436;8.490;2023-07-13T11:49:17;29.90;1.00
14031;DHT22;7090;49.436;8.490;2023-07-13T11:51:43;29.70;99.90
14031;DHT22;7090;49.436;8.490;2023-07-13T11:54:30;29.50;99.90
14031;DHT22;7090;49.436;8.490;2023-07-13T11:56:58;29.00;15.70
14031;DHT22;7090;49.436;8.490;2023-07-13T11:59:26;28.80;99.90
14031;DHT22;7090;49.436;8.490;2023-07-13T12:01:54;29.30;99.90
14031;DHT22;7090;49.436;8.490;2023-07-13T12:04:24;29.90;99.90
14031;DHT22;7090;49.436;8.490;2023-07-13T12:07:17;29.50;99.90
14031;DHT22;7090;49.436;8.490;2023-07-13T12:09:43;28.70;99.90
14031;DHT22;7090;49.436;8.490;2023-07-13T12:12:14;28.70;99.90
14031;DHT22;7090;49.436;8.490;2023-07-13T12:14:40;28.50;1.00
14031;DHT22;7090;49.436;8.490;2023-07-13T12:17:20;28.30;99.90
14031;DHT22;7090;49.436;8.490;2023-07-13T12:19:47;28.30;99.90
14031;DHT22;7090;49.436;8.490;2023-07-13T12:22:14;27.60;99.90
14031;DHT22;7090;49.436;8.490;2023-07-13T12:24:41;27.20;99.90
14031;DHT22;7090;49.436;8.490;2023-07-13T12:27:25;27.10;99.90
14031;DHT22;7090;49.436;8.490;2023-07-13T12:30:28;26.80;99.90
14031;DHT22;7090;49.436;8.490;2023-07-13T12:33:01;27.20;99.90
14031;DHT22;7090;49.436;8.490;2023-07-13T12:35:29;28.10;99.90
14031;DHT22;7090;49.436;8.490;2023-07-13T12:37:57;28.70;99.90
14031;DHT22;7090;49.436;8.490;2023-07-13T12:40:33;28.70;99.90
14031;DHT22;7090;49.436;8.490;2023-07-13T12:43:01;28.40;99.90
14031;DHT22;7090;49.436;8.490;2023-07-13T12:45:29;28.30;95.80
14031;DHT22;7090;49.436;8.490;2023-07-13T12:47:57;28.50;99.90
14031;DHT22;7090;49.436;8.490;2023-07-13T12:50:34;28.50;99.90
14031;DHT22;7090;49.436;8.490;2023-07-13T12:53:02;28.20;99.90
14031;DHT22;7090;49.436;8.490;2023-07-13T12:55:44;28.00;48.60
14031;DHT22;7090;49.436;8.490;2023-07-13T12:58:36;28.10;94.50
14031;DHT22;7090;49.436;8.490;2023-07-13T13:01:03;28.00;78.60
14031;DHT22;7090;49.436;8.490;2023-07-13T13:05:58;27.90;99.90
14031;DHT22;7090;49.436;8.490;2023-07-13T13:08:25;27.70;99.90
14031;DHT22;7090;49.436;8.490;2023-07-13T13:10:50;27.50;1.00
14031;DHT22;7090;49.436;8.490;2023-07-13T13:13:16;27.60;1.00
14031;DHT22;7090;49.436;8.490;2023-07-13T13:15:41;27.40;1.00
14031;DHT22;7090;49.436;8.490;2023-07-13T13:18:18;27.40;88.50
14031;DHT22;7090;49.436;8.490;2023-07-13T13:20:44;27.70;1.00
14031;DHT22;7090;49.436;8.490;2023-07-13T13:23:13;27.60;1.00
14031;DHT22;7090;49.436;8.490;2023-07-13T13:25:43;27.40;1.00
14031;DHT22;7090;49.436;8.490;2023-07-13T13:28:18;27.40;1.00
14031;DHT22;7090;49.436;8.490;2023-07-13T13:30:45;27.80;1.00
14031;DHT22;7090;49.436;8.490;2023-07-13T13:33:15;28.10;30.60
14031;DHT22;7090;49.436;8.490;2023-07-13T13:35:41;28.00;1.00
14031;DHT22;7090;49.436;8.490;2023-07-13T13:40:37;28.20;1.00
14031;DHT22;7090;49.436;8.490;2023-07-13T13:43:09;28.30;1.00
14031;DHT22;7090;49.436;8.490;2023-07-13T13:45:40;28.80;99.90
14031;DHT22;7090;49.436;8.490;2023-07-13T13:48:05;28.80;99.90
14031;DHT22;7090;49.436;8.490;2023-07-13T13:50:31;28.70;99.90
14031;DHT22;7090;49.436;8.490;2023-07-13T13:52:56;28.30;99.90
14031;DHT22;7090;49.436;8.490;2023-07-13T13:55:22;28.50;99.90
14031;DHT22;7090;49.436;8.490;2023-07-13T13:57:49;28.70;99.90
14031;DHT22;7090;49.436;8.490;2023-07-13T14:00:16;28.60;99.90
14031;DHT22;7090;49.436;8.490;2023-07-13T14:02:45;28.20;1.00
14031;DHT22;7090;49.436;8.490;2023-07-13T14:05:17;26.90;1.00
14031;DHT22;7090;49.436;8.490;2023-07-13T14:07:44;27.30;1.00
14031;DHT22;7090;49.436;8.490;2023-07-13T14:10:15;27.60;1.00
14031;DHT22;7090;49.436;8.490;2023-07-13T14:12:42;27.70;1.00
14031;DHT22;7090;49.436;8.490;2023-07-13T14:17:50;28.40;99.90
14031;DHT22;7090;49.436;8.490;2023-07-13T14:20:20;29.00;99.90
14031;DHT22;7090;49.436;8.490;2023-07-13T14:22:49;29.10;99.90
14031;DHT22;7090;49.436;8.490;2023-07-13T14:25:17;28.70;58.80
14031;DHT22;7090;49.436;8.490;2023-07-13T14:27:44;28.50;98.90
14031;DHT22;7090;49.436;8.490;2023-07-13T14:30:14;28.30;99.90
14031;DHT22;7090;49.436;8.490;2023-07-13T14:32:40;28.30;1.00
14031;DHT22;7090;49.436;8.490;2023-07-13T14:35:07;28.30;1.00
14031;DHT22;7090;49.436;8.490;2023-07-13T14:37:32;28.20;1.00
14031;DHT22;7090;49.436;8.490;2023-07-13T14:39:58;28.10;1.00
14031;DHT22;7090;49.436;8.490;2023-07-13T14:42:24;27.90;1.00
14031;DHT22;7090;49.436;8.490;2023-07-13T14:44:49;27.20;99.90
14031;DHT22;7090;49.436;8.490;2023-07-13T14:47:15;27.40;99.90
14031;DHT22;7090;49.436;8.490;2023-07-13T14:49:44;27.70;99.90
14031;DHT22;7090;49.436;8.490;2023-07-13T14:52:16;27.70;99.90
14031;DHT22;7090;49.436;8.490;2023-07-13T14:54:42;27.90;1.00
14031;DHT22;7090;49.436;8.490;2023-07-13T14:57:10;27.90;99.90
14031;DHT22;7090;49.436;8.490;2023-07-13T14:59:37;28.00;1.00
14031;DHT22;7090;49.436;8.490;2023-07-13T15:02:17;28.10;11.80
14031;DHT22;7090;49.436;8.490;2023-07-13T15:04:44;27.80;96.10
14031;DHT22;7090;49.436;8.490;2023-07-13T15:07:11;27.50;40.80
14031;DHT22;7090;49.436;8.490;2023-07-13T15:09:37;27.60;90.50
14031;DHT22;7090;49.436;8.490;2023-07-13T15:12:03;27.60;1.00
14031;DHT22;7090;49.436;8.490;2023-07-13T15:14:30;27.60;1.00
14031;DHT22;7090;49.436;8.490;2023-07-13T15:16:56;27.50;1.00
14031;DHT22;7090;49.436;8.490;2023-07-13T15:19:23;27.50;99.90
14031;DHT22;7090;49.436;8.490;2023-07-13T15:21:49;27.50;99.90
14031;DHT22;7090;49.436;8.490;2023-07-13T15:24:15;27.50;99.90
14031;DHT22;7090;49.436;8.490;2023-07-13T15:26:41;27.50;1.00
14031;DHT22;7090;49.436;8.490;2023-07-13T15:29:11;27.40;1.00
14031;DHT22;7090;49.436;8.490;2023-07-13T15:31:36;27.20;1.00
14031;DHT22;7090;49.436;8.490;2023-07-13T15:34:13;27.30;99.90
14031;DHT22;7090;49.436;8.490;2023-07-13T15:36:39;27.40;1.00
14031;DHT22;7090;49.436;8.490;2023-07-13T15:39:05;27.70;1.00
14031;DHT22;7090;49.436;8.490;2023-07-13T15:41:31;28.00;1.00
14031;DHT22;7090;49.436;8.490;2023-07-13T15:43:58;28.30;1.00
14031;DHT22;7090;49.436;8.490;2023-07-13T15:46:26;29.00;1.00
14031;DHT22;7090;49.436;8.490;2023-07-13T15:48:53;29.10;1.00
14031;DHT22;7090;49.436;8.490;2023-07-13T15:53:45;28.50;1.00
14031;DHT22;7090;49.436;8.490;2023-07-13T15:56:22;28.30;1.00
14031;DHT22;7090;49.436;8.490;2023-07-13T15:58:48;28.20;22.20
14031;DHT22;7090;49.436;8.490;2023-07-13T16:01:14;28.10;90.50
14031;DHT22;7090;49.436;8.490;2023-07-13T16:03:40;28.00;99.90
14031;DHT22;7090;49.436;8.490;2023-07-13T16:06:26;28.30;1.00
14031;DHT22;7090;49.436;8.490;2023-07-13T16:08:53;29.00;21.40
14031;DHT22;7090;49.436;8.490;2023-07-13T16:13:44;28.30;99.90
14031;DHT22;7090;49.436;8.490;2023-07-13T16:16:19;27.80;1.00
14031;DHT22;7090;49.436;8.490;2023-07-13T16:18:44;27.50;1.00
14031;DHT22;7090;49.436;8.490;2023-07-13T16:21:11;27.30;1.00
14031;DHT22;7090;49.436;8.490;2023-07-13T16:23:37;27.00;52.60
14031;DHT22;7090;49.436;8.490;2023-07-13T16:26:04;26.90;1.00
14031;DHT22;7090;49.436;8.490;2023-07-13T16:28:35;26.90;99.90
14031;DHT22;7090;49.436;8.490;2023-07-13T16:31:00;26.90;1.00
14031;DHT22;7090;49.436;8.490;2023-07-13T16:33:27;26.70;1.00
14031;DHT22;7090;49.436;8.490;2023-07-13T16:35:53;26.50;1.00
14031;DHT22;7090;49.436;8.490;2023-07-13T16:38:20;26.30;1.00
14031;DHT22;7090;49.436;8.490;2023-07-13T16:40:47;26.10;1.00
14031;DHT22;7090;49.436;8.490;2023-07-13T16:43:15;26.00;1.00
14031;DHT22;7090;49.436;8.490;2023-07-13T16:45:41;25.90;99.90